createdAt,value
2023-04-26T00:00:19.516Z,1010.91
2023-04-26T00:00:52.076Z,1010.92
2023-04-26T00:01:24.618Z,1010.93
2023-04-26T00:01:57.183Z,1010.91
2023-04-26T00:02:29.850Z,1010.92
2023-04-26T00:03:02.416Z,1010.93
2023-04-26T00:03:34.963Z,1010.94
2023-04-26T00:04:07.693Z,1010.96
2023-04-26T00:04:39.899Z,1010.96
2023-04-26T00:05:12.529Z,1010.96
2023-04-26T00:05:44.855Z,1010.98
2023-04-26T00:06:17.353Z,1010.96
2023-04-26T00:06:49.845Z,1010.97
2023-04-26T00:07:22.365Z,1010.98
2023-04-26T00:07:54.956Z,1010.98
2023-04-26T00:08:27.431Z,1011.00
2023-04-26T00:08:59.927Z,1011.00
2023-04-26T00:09:32.436Z,1011.00
2023-04-26T00:10:04.953Z,1011.00
2023-04-26T00:10:37.462Z,1011.01
2023-04-26T00:11:10.057Z,1011.01
2023-04-26T00:11:42.609Z,1011.03
2023-04-26T00:12:15.109Z,1011.01
2023-04-26T00:12:47.598Z,1010.99
2023-04-26T00:13:20.161Z,1011.02
2023-04-26T00:13:52.672Z,1011.02
2023-04-26T00:14:25.206Z,1011.00
2023-04-26T00:14:57.714Z,1011.01
2023-04-26T00:15:30.245Z,1011.02
2023-04-26T00:16:02.786Z,1011.02
2023-04-26T00:16:35.341Z,1011.02
2023-04-26T00:17:07.814Z,1011.02
2023-04-26T00:17:40.348Z,1011.01
2023-04-26T00:18:12.906Z,1011.01
2023-04-26T00:18:45.392Z,1011.00
2023-04-26T00:19:17.887Z,1010.99
2023-04-26T00:19:50.480Z,1010.99
2023-04-26T00:20:22.979Z,1011.00
2023-04-26T00:20:55.500Z,1010.99
2023-04-26T00:21:28.024Z,1011.00
2023-04-26T00:22:00.552Z,1010.99
2023-04-26T00:22:33.043Z,1010.99
2023-04-26T00:23:05.577Z,1010.99
2023-04-26T00:23:38.080Z,1011.00
2023-04-26T00:24:10.626Z,1011.00
2023-04-26T00:24:43.210Z,1011.01
2023-04-26T00:25:15.733Z,1011.00
2023-04-26T00:25:48.226Z,1011.00
2023-04-26T00:26:20.760Z,1011.02
2023-04-26T00:26:53.261Z,1011.03
2023-04-26T00:27:25.802Z,1011.01
2023-04-26T00:27:58.325Z,1010.99
2023-04-26T00:28:30.881Z,1010.99
2023-04-26T00:29:03.403Z,1011.00
2023-04-26T00:29:35.959Z,1011.01
2023-04-26T00:30:08.461Z,1011.02
2023-04-26T00:30:40.982Z,1011.02
2023-04-26T00:31:13.978Z,1011.02
2023-04-26T00:31:46.570Z,1011.02
2023-04-26T00:32:19.025Z,1011.03
2023-04-26T00:32:51.632Z,1011.04
2023-04-26T00:33:24.068Z,1011.03
2023-04-26T00:33:56.585Z,1011.04
2023-04-26T00:34:29.149Z,1011.05
2023-04-26T00:35:01.720Z,1011.06
2023-04-26T00:35:34.222Z,1011.03
2023-04-26T00:36:06.731Z,1011.03
2023-04-26T00:36:39.246Z,1011.02
2023-04-26T00:37:11.810Z,1011.00
2023-04-26T00:37:44.326Z,1011.00
2023-04-26T00:38:16.834Z,1010.99
2023-04-26T00:38:49.508Z,1010.99
2023-04-26T00:39:21.866Z,1010.98
2023-04-26T00:39:54.424Z,1010.98
2023-04-26T00:40:26.919Z,1010.97
2023-04-26T00:40:59.434Z,1010.98
2023-04-26T00:41:31.959Z,1010.97
2023-04-26T00:42:04.519Z,1010.96
2023-04-26T00:42:37.053Z,1010.96
2023-04-26T00:43:09.621Z,1010.96
2023-04-26T00:43:42.148Z,1010.96
2023-04-26T00:44:14.684Z,1010.95
2023-04-26T00:44:47.214Z,1010.95
2023-04-26T00:45:19.707Z,1010.95
2023-04-26T00:45:52.264Z,1010.95
2023-04-26T00:46:24.803Z,1010.94
2023-04-26T00:46:57.297Z,1010.93
2023-04-26T00:47:29.833Z,1010.94
2023-04-26T00:48:02.352Z,1010.93
2023-04-26T00:48:34.920Z,1010.92
2023-04-26T00:49:07.487Z,1010.94
2023-04-26T00:49:40.020Z,1010.91
2023-04-26T00:50:12.501Z,1010.90
2023-04-26T00:50:45.013Z,1010.90
2023-04-26T00:51:17.557Z,1010.88
2023-04-26T00:51:50.044Z,1010.87
2023-04-26T00:52:22.550Z,1010.85
2023-04-26T00:52:55.103Z,1010.85
2023-04-26T00:53:27.619Z,1010.84
2023-04-26T00:54:00.127Z,1010.80
2023-04-26T00:54:32.610Z,1010.81
2023-04-26T00:55:05.130Z,1010.82
2023-04-26T00:55:37.684Z,1010.81
2023-04-26T00:56:10.278Z,1010.81
2023-04-26T00:56:42.719Z,1010.81
2023-04-26T00:57:15.225Z,1010.81
2023-04-26T00:57:47.737Z,1010.83
2023-04-26T00:58:20.253Z,1010.83
2023-04-26T00:58:53.131Z,1010.81
2023-04-26T00:59:25.258Z,1010.81
2023-04-26T00:59:57.781Z,1010.81
2023-04-26T01:00:30.321Z,1010.79
2023-04-26T01:01:02.879Z,1010.81
2023-04-26T01:01:35.508Z,1010.81
2023-04-26T01:02:07.922Z,1010.80
2023-04-26T01:02:40.524Z,1010.80
2023-04-26T01:03:13.056Z,1010.81
2023-04-26T01:03:45.527Z,1010.80
2023-04-26T01:04:18.504Z,1010.80
2023-04-26T01:04:50.455Z,1010.81
2023-04-26T01:05:22.970Z,1010.81
2023-04-26T01:05:55.527Z,1010.80
2023-04-26T01:06:28.052Z,1010.81
2023-04-26T01:07:00.561Z,1010.79
2023-04-26T01:07:33.048Z,1010.81
2023-04-26T01:08:05.562Z,1010.81
2023-04-26T01:08:38.081Z,1010.80
2023-04-26T01:09:10.565Z,1010.81
2023-04-26T01:09:43.073Z,1010.81
2023-04-26T01:10:15.560Z,1010.81
2023-04-26T01:10:48.091Z,1010.80
2023-04-26T01:11:20.602Z,1010.80
2023-04-26T01:11:53.140Z,1010.81
2023-04-26T01:12:25.666Z,1010.80
2023-04-26T01:12:58.169Z,1010.80
2023-04-26T01:13:30.712Z,1010.81
2023-04-26T01:14:03.193Z,1010.82
2023-04-26T01:14:35.696Z,1010.81
2023-04-26T01:15:08.209Z,1010.81
2023-04-26T01:15:40.724Z,1010.80
2023-04-26T01:16:13.204Z,1010.82
2023-04-26T01:16:45.846Z,1010.83
2023-04-26T01:17:18.300Z,1010.83
2023-04-26T01:17:50.859Z,1010.83
2023-04-26T01:18:23.340Z,1010.81
2023-04-26T01:18:55.860Z,1010.84
2023-04-26T01:19:28.341Z,1010.84
2023-04-26T01:20:00.903Z,1010.85
2023-04-26T01:20:33.384Z,1010.85
2023-04-26T01:21:05.895Z,1010.85
2023-04-26T01:21:38.456Z,1010.85
2023-04-26T01:22:10.954Z,1010.85
2023-04-26T01:22:43.478Z,1010.84
2023-04-26T01:23:15.981Z,1010.88
2023-04-26T01:23:48.490Z,1010.88
2023-04-26T01:24:20.987Z,1010.88
2023-04-26T01:24:53.515Z,1010.87
2023-04-26T01:25:26.014Z,1010.89
2023-04-26T01:25:58.499Z,1010.87
2023-04-26T01:26:31.068Z,1010.87
2023-04-26T01:27:03.575Z,1010.87
2023-04-26T01:27:36.109Z,1010.86
2023-04-26T01:28:08.609Z,1010.86
2023-04-26T01:28:41.100Z,1010.85
2023-04-26T01:29:13.658Z,1010.84
2023-04-26T01:29:46.160Z,1010.85
2023-04-26T01:30:18.651Z,1010.85
2023-04-26T01:30:51.211Z,1010.85
2023-04-26T01:31:23.750Z,1010.85
2023-04-26T01:31:56.267Z,1010.84
2023-04-26T01:32:28.804Z,1010.85
2023-04-26T01:33:01.336Z,1010.86
2023-04-26T01:33:33.816Z,1010.86
2023-04-26T01:34:06.318Z,1010.86
2023-04-26T01:34:38.903Z,1010.86
2023-04-26T01:35:11.432Z,1010.87
2023-04-26T01:35:43.942Z,1010.87
2023-04-26T01:36:16.437Z,1010.87
2023-04-26T01:36:48.942Z,1010.89
2023-04-26T01:37:21.414Z,1010.89
2023-04-26T01:37:53.928Z,1010.89
2023-04-26T01:38:26.444Z,1010.89
2023-04-26T01:38:58.952Z,1010.91
2023-04-26T01:39:31.496Z,1010.90
2023-04-26T01:40:04.125Z,1010.91
2023-04-26T01:40:36.570Z,1010.93
2023-04-26T01:41:09.110Z,1010.93
2023-04-26T01:41:41.607Z,1010.92
2023-04-26T01:42:14.123Z,1010.91
2023-04-26T01:42:46.631Z,1010.89
2023-04-26T01:43:19.138Z,1010.88
2023-04-26T01:43:51.631Z,1010.86
2023-04-26T01:44:24.183Z,1010.88
2023-04-26T01:44:56.735Z,1010.88
2023-04-26T01:45:29.265Z,1010.86
2023-04-26T01:46:01.812Z,1010.88
2023-04-26T01:46:34.340Z,1010.87
2023-04-26T01:47:06.800Z,1010.86
2023-04-26T01:47:39.325Z,1010.86
2023-04-26T01:48:11.800Z,1010.89
2023-04-26T01:48:44.336Z,1010.87
2023-04-26T01:49:16.849Z,1010.87
2023-04-26T01:49:49.369Z,1010.87
2023-04-26T01:50:21.870Z,1010.88
2023-04-26T01:50:54.360Z,1010.87
2023-04-26T01:51:26.892Z,1010.90
2023-04-26T01:51:59.495Z,1010.90
2023-04-26T01:52:33.181Z,1010.89
2023-04-26T01:53:05.690Z,1010.91
2023-04-26T01:53:38.221Z,1010.91
2023-04-26T01:54:10.736Z,1010.91
2023-04-26T01:54:43.264Z,1010.90
2023-04-26T01:55:15.745Z,1010.88
2023-04-26T01:55:48.282Z,1010.88
2023-04-26T01:56:20.750Z,1010.88
2023-04-26T01:56:53.259Z,1010.88
2023-04-26T01:57:25.775Z,1010.89
2023-04-26T01:57:58.322Z,1010.89
2023-04-26T01:58:30.845Z,1010.88
2023-04-26T01:59:03.400Z,1010.90
2023-04-26T01:59:35.910Z,1010.91
2023-04-26T02:00:08.418Z,1010.89
2023-04-26T02:00:40.931Z,1010.90
2023-04-26T02:01:13.561Z,1010.90
2023-04-26T02:01:46.071Z,1010.90
2023-04-26T02:02:18.645Z,1010.89
2023-04-26T02:02:51.184Z,1010.88
2023-04-26T02:03:23.728Z,1010.90
2023-04-26T02:03:56.165Z,1010.89
2023-04-26T02:04:28.659Z,1010.91
2023-04-26T02:05:01.262Z,1010.91
2023-04-26T02:05:33.676Z,1010.91
2023-04-26T02:06:06.188Z,1010.92
2023-04-26T02:06:38.675Z,1010.92
2023-04-26T02:07:11.196Z,1010.92
2023-04-26T02:07:43.718Z,1010.92
2023-04-26T02:08:16.221Z,1010.93
2023-04-26T02:08:48.726Z,1010.94
2023-04-26T02:09:21.231Z,1010.93
2023-04-26T02:09:53.835Z,1010.94
2023-04-26T02:10:26.240Z,1010.94
2023-04-26T02:10:58.804Z,1010.94
2023-04-26T02:11:31.313Z,1010.93
2023-04-26T02:12:03.870Z,1010.92
2023-04-26T02:12:36.395Z,1010.94
2023-04-26T02:13:08.896Z,1010.93
2023-04-26T02:13:41.415Z,1010.94
2023-04-26T02:14:13.923Z,1010.93
2023-04-26T02:14:46.447Z,1010.93
2023-04-26T02:15:18.981Z,1010.93
2023-04-26T02:15:51.567Z,1010.92
2023-04-26T02:16:24.139Z,1010.92
2023-04-26T02:16:56.578Z,1010.91
2023-04-26T02:17:29.128Z,1010.91
2023-04-26T02:18:01.607Z,1010.91
2023-04-26T02:18:34.074Z,1010.89
2023-04-26T02:19:06.561Z,1010.89
2023-04-26T02:19:39.060Z,1010.87
2023-04-26T02:20:11.569Z,1010.89
2023-04-26T02:20:44.069Z,1010.88
2023-04-26T02:21:16.595Z,1010.88
2023-04-26T02:21:49.102Z,1010.88
2023-04-26T02:22:21.618Z,1010.87
2023-04-26T02:22:54.145Z,1010.87
2023-04-26T02:23:26.657Z,1010.87
2023-04-26T02:23:59.144Z,1010.88
2023-04-26T02:24:33.054Z,1010.88
2023-04-26T02:25:04.160Z,1010.89
2023-04-26T02:25:36.682Z,1010.89
2023-04-26T02:26:09.193Z,1010.90
2023-04-26T02:26:41.752Z,1010.88
2023-04-26T02:27:14.261Z,1010.91
2023-04-26T02:27:46.804Z,1010.91
2023-04-26T02:28:19.291Z,1010.91
2023-04-26T02:28:52.133Z,1010.92
2023-04-26T02:29:36.362Z,1010.92
2023-04-26T02:29:56.867Z,1010.94
2023-04-26T02:30:29.377Z,1010.94
2023-04-26T02:31:01.933Z,1010.95
2023-04-26T02:31:34.480Z,1010.94
2023-04-26T02:32:06.919Z,1010.94
2023-04-26T02:32:39.460Z,1010.93
2023-04-26T02:33:11.964Z,1010.94
2023-04-26T02:33:44.456Z,1010.93
2023-04-26T02:34:16.942Z,1010.93
2023-04-26T02:34:49.459Z,1010.94
2023-04-26T02:35:21.923Z,1010.94
2023-04-26T02:35:54.427Z,1010.97
2023-04-26T02:36:26.970Z,1010.97
2023-04-26T02:36:59.478Z,1010.97
2023-04-26T02:37:31.985Z,1010.97
2023-04-26T02:38:04.474Z,1010.98
2023-04-26T02:38:36.984Z,1010.96
2023-04-26T02:39:09.503Z,1010.97
2023-04-26T02:39:42.055Z,1010.97
2023-04-26T02:40:14.574Z,1010.97
2023-04-26T02:40:47.071Z,1010.97
2023-04-26T02:41:19.586Z,1010.97
2023-04-26T02:41:52.085Z,1010.98
2023-04-26T02:42:24.573Z,1010.99
2023-04-26T02:42:57.079Z,1010.97
2023-04-26T02:43:29.590Z,1010.98
2023-04-26T02:44:02.085Z,1010.97
2023-04-26T02:44:34.627Z,1010.98
2023-04-26T02:45:07.151Z,1010.97
2023-04-26T02:45:39.669Z,1010.97
2023-04-26T02:46:12.240Z,1010.97
2023-04-26T02:46:44.770Z,1010.96
2023-04-26T02:47:17.288Z,1010.97
2023-04-26T02:47:49.842Z,1010.98
2023-04-26T02:48:22.293Z,1010.95
2023-04-26T02:48:54.943Z,1010.96
2023-04-26T02:49:27.358Z,1010.97
2023-04-26T02:49:59.837Z,1010.97
2023-04-26T02:50:32.352Z,1010.96
2023-04-26T02:51:04.847Z,1010.96
2023-04-26T02:51:37.379Z,1010.97
2023-04-26T02:52:09.916Z,1010.97
2023-04-26T02:52:42.444Z,1010.96
2023-04-26T02:53:14.949Z,1010.96
2023-04-26T02:53:47.424Z,1010.97
2023-04-26T02:54:19.931Z,1010.98
2023-04-26T02:54:52.419Z,1010.98
2023-04-26T02:55:24.932Z,1010.99
2023-04-26T02:55:57.420Z,1010.98
2023-04-26T02:56:29.923Z,1011.00
2023-04-26T02:57:02.416Z,1010.98
2023-04-26T02:57:34.946Z,1010.97
2023-04-26T02:58:07.450Z,1010.97
2023-04-26T02:58:39.966Z,1010.95
2023-04-26T02:59:12.508Z,1010.95
2023-04-26T02:59:45.036Z,1010.95
2023-04-26T03:00:17.577Z,1010.93
2023-04-26T03:00:50.153Z,1010.92
2023-04-26T03:01:22.670Z,1010.91
2023-04-26T03:01:55.243Z,1010.91
2023-04-26T03:02:27.849Z,1010.89
2023-04-26T03:03:00.520Z,1010.89
2023-04-26T03:03:33.003Z,1010.88
2023-04-26T03:04:05.607Z,1010.87
2023-04-26T03:04:37.930Z,1010.87
2023-04-26T03:05:10.459Z,1010.86
2023-04-26T03:05:43.030Z,1010.88
2023-04-26T03:06:15.577Z,1010.86
2023-04-26T03:06:48.109Z,1010.86
2023-04-26T03:07:20.628Z,1010.86
2023-04-26T03:07:53.145Z,1010.86
2023-04-26T03:08:25.625Z,1010.85
2023-04-26T03:08:58.141Z,1010.86
2023-04-26T03:09:30.686Z,1010.86
2023-04-26T03:10:03.196Z,1010.87
2023-04-26T03:10:35.757Z,1010.87
2023-04-26T03:11:08.399Z,1010.87
2023-04-26T03:11:41.001Z,1010.89
2023-04-26T03:12:13.848Z,1010.88
2023-04-26T03:12:46.468Z,1010.87
2023-04-26T03:13:19.277Z,1010.89
2023-04-26T03:13:51.798Z,1010.90
2023-04-26T03:14:24.414Z,1010.93
2023-04-26T03:14:56.913Z,1010.93
2023-04-26T03:15:29.449Z,1010.92
2023-04-26T03:16:02.031Z,1010.93
2023-04-26T03:16:34.511Z,1010.92
2023-04-26T03:17:07.000Z,1010.92
2023-04-26T03:17:39.526Z,1010.93
2023-04-26T03:18:12.045Z,1010.92
2023-04-26T03:18:44.534Z,1010.92
2023-04-26T03:19:17.051Z,1010.91
2023-04-26T03:19:49.570Z,1010.93
2023-04-26T03:20:22.110Z,1010.93
2023-04-26T03:20:54.641Z,1010.92
2023-04-26T03:21:27.187Z,1010.94
2023-04-26T03:21:59.689Z,1010.94
2023-04-26T03:22:32.185Z,1010.93
2023-04-26T03:23:04.737Z,1010.92
2023-04-26T03:23:37.265Z,1010.92
2023-04-26T03:24:09.845Z,1010.93
2023-04-26T03:24:42.387Z,1010.91
2023-04-26T03:25:14.862Z,1010.90
2023-04-26T03:25:47.383Z,1010.91
2023-04-26T03:26:19.899Z,1010.90
2023-04-26T03:26:52.394Z,1010.90
2023-04-26T03:27:24.889Z,1010.90
2023-04-26T03:27:57.401Z,1010.93
2023-04-26T03:28:29.936Z,1010.92
2023-04-26T03:29:02.501Z,1010.91
2023-04-26T03:29:35.001Z,1010.91
2023-04-26T03:30:07.508Z,1010.91
2023-04-26T03:30:40.017Z,1010.90
2023-04-26T03:31:12.546Z,1010.92
2023-04-26T03:31:45.085Z,1010.93
2023-04-26T03:32:17.847Z,1010.93
2023-04-26T03:32:50.167Z,1010.93
2023-04-26T03:33:22.604Z,1010.90
2023-04-26T03:33:55.109Z,1010.92
2023-04-26T03:34:27.662Z,1010.92
2023-04-26T03:35:00.180Z,1010.91
2023-04-26T03:35:32.700Z,1010.91
2023-04-26T03:36:05.306Z,1010.89
2023-04-26T03:36:37.795Z,1010.89
2023-04-26T03:37:10.336Z,1010.91
2023-04-26T03:37:42.849Z,1010.93
2023-04-26T03:38:15.350Z,1010.92
2023-04-26T03:38:47.898Z,1010.90
2023-04-26T03:39:20.403Z,1010.88
2023-04-26T03:39:52.907Z,1010.88
2023-04-26T03:40:25.417Z,1010.90
2023-04-26T03:40:57.915Z,1010.87
2023-04-26T03:41:30.430Z,1010.87
2023-04-26T03:42:02.957Z,1010.87
2023-04-26T03:42:35.461Z,1010.86
2023-04-26T03:43:07.979Z,1010.86
2023-04-26T03:43:40.492Z,1010.87
2023-04-26T03:44:12.983Z,1010.89
2023-04-26T03:44:45.524Z,1010.88
2023-04-26T03:45:18.090Z,1010.89
2023-04-26T03:45:50.799Z,1010.87
2023-04-26T03:46:23.333Z,1010.88
2023-04-26T03:46:55.775Z,1010.87
2023-04-26T03:47:28.343Z,1010.86
2023-04-26T03:48:00.961Z,1010.86
2023-04-26T03:48:33.303Z,1010.85
2023-04-26T03:49:05.825Z,1010.85
2023-04-26T03:49:38.347Z,1010.85
2023-04-26T03:50:10.846Z,1010.84
2023-04-26T03:50:43.405Z,1010.84
2023-04-26T03:51:15.923Z,1010.82
2023-04-26T03:51:48.427Z,1010.84
2023-04-26T03:52:20.932Z,1010.85
2023-04-26T03:52:53.443Z,1010.85
2023-04-26T03:53:25.954Z,1010.86
2023-04-26T03:53:58.499Z,1010.86
2023-04-26T03:54:30.986Z,1010.86
2023-04-26T03:55:03.508Z,1010.86
2023-04-26T03:55:35.996Z,1010.85
2023-04-26T03:56:08.534Z,1010.87
2023-04-26T03:56:41.053Z,1010.88
2023-04-26T03:57:13.644Z,1010.87
2023-04-26T03:57:46.183Z,1010.86
2023-04-26T03:58:18.739Z,1010.86
2023-04-26T03:58:51.479Z,1010.86
2023-04-26T03:59:23.782Z,1010.85
2023-04-26T03:59:56.295Z,1010.85
2023-04-26T04:00:28.809Z,1010.85
2023-04-26T04:01:01.350Z,1010.86
2023-04-26T04:01:33.851Z,1010.85
2023-04-26T04:02:06.392Z,1010.85
2023-04-26T04:02:38.982Z,1010.86
2023-04-26T04:03:11.512Z,1010.86
2023-04-26T04:03:44.122Z,1010.86
2023-04-26T04:04:16.728Z,1010.86
2023-04-26T04:04:49.153Z,1010.86
2023-04-26T04:05:21.471Z,1010.86
2023-04-26T04:05:53.961Z,1010.85
2023-04-26T04:06:26.593Z,1010.83
2023-04-26T04:06:59.115Z,1010.82
2023-04-26T04:07:31.635Z,1010.82
2023-04-26T04:08:04.134Z,1010.81
2023-04-26T04:08:36.653Z,1010.80
2023-04-26T04:09:09.171Z,1010.82
2023-04-26T04:09:41.659Z,1010.84
2023-04-26T04:10:14.177Z,1010.84
2023-04-26T04:10:46.724Z,1010.85
2023-04-26T04:11:19.218Z,1010.84
2023-04-26T04:11:51.705Z,1010.84
2023-04-26T04:12:24.240Z,1010.84
2023-04-26T04:12:56.734Z,1010.84
2023-04-26T04:13:29.225Z,1010.86
2023-04-26T04:14:01.753Z,1010.85
2023-04-26T04:14:34.274Z,1010.84
2023-04-26T04:15:06.782Z,1010.85
2023-04-26T04:15:39.429Z,1010.84
2023-04-26T04:16:11.890Z,1010.84
2023-04-26T04:16:44.364Z,1010.83
2023-04-26T04:17:16.936Z,1010.82
2023-04-26T04:17:49.437Z,1010.84
2023-04-26T04:18:21.885Z,1010.84
2023-04-26T04:18:54.642Z,1010.84
2023-04-26T04:19:26.903Z,1010.84
2023-04-26T04:19:59.390Z,1010.86
2023-04-26T04:20:31.897Z,1010.86
2023-04-26T04:21:04.406Z,1010.85
2023-04-26T04:21:36.947Z,1010.85
2023-04-26T04:22:09.450Z,1010.84
2023-04-26T04:22:42.001Z,1010.83
2023-04-26T04:23:14.520Z,1010.82
2023-04-26T04:23:47.040Z,1010.80
2023-04-26T04:24:19.537Z,1010.80
2023-04-26T04:24:52.052Z,1010.79
2023-04-26T04:25:24.526Z,1010.80
2023-04-26T04:25:57.040Z,1010.81
2023-04-26T04:26:29.561Z,1010.82
2023-04-26T04:27:02.117Z,1010.82
2023-04-26T04:27:34.628Z,1010.82
2023-04-26T04:28:07.147Z,1010.82
2023-04-26T04:28:39.641Z,1010.81
2023-04-26T04:29:12.155Z,1010.81
2023-04-26T04:29:44.646Z,1010.82
2023-04-26T04:30:17.179Z,1010.82
2023-04-26T04:30:56.740Z,1010.81
2023-04-26T04:31:30.039Z,1010.83
2023-04-26T04:32:02.517Z,1010.80
2023-04-26T04:32:35.035Z,1010.79
2023-04-26T04:33:07.574Z,1010.79
2023-04-26T04:33:40.096Z,1010.77
2023-04-26T04:34:12.638Z,1010.77
2023-04-26T04:34:45.170Z,1010.78
2023-04-26T04:35:17.689Z,1010.80
2023-04-26T04:35:50.181Z,1010.78
2023-04-26T04:36:22.659Z,1010.80
2023-04-26T04:36:55.313Z,1010.79
2023-04-26T04:37:27.858Z,1010.81
2023-04-26T04:38:00.344Z,1010.82
2023-04-26T04:38:32.882Z,1010.84
2023-04-26T04:39:05.385Z,1010.84
2023-04-26T04:39:37.922Z,1010.86
2023-04-26T04:40:11.476Z,1010.88
2023-04-26T04:40:42.961Z,1010.87
2023-04-26T04:41:15.504Z,1010.88
2023-04-26T04:41:48.048Z,1010.89
2023-04-26T04:42:20.545Z,1010.90
2023-04-26T04:42:53.070Z,1010.89
2023-04-26T04:43:25.612Z,1010.90
2023-04-26T04:43:58.110Z,1010.91
2023-04-26T04:44:30.639Z,1010.90
2023-04-26T04:45:03.166Z,1010.91
2023-04-26T04:45:35.799Z,1010.91
2023-04-26T04:46:09.190Z,1010.90
2023-04-26T04:46:40.928Z,1010.90
2023-04-26T04:47:13.470Z,1010.89
2023-04-26T04:47:46.021Z,1010.91
2023-04-26T04:48:18.561Z,1010.90
2023-04-26T04:48:51.243Z,1010.90
2023-04-26T04:49:23.623Z,1010.90
2023-04-26T04:49:56.129Z,1010.90
2023-04-26T04:50:28.629Z,1010.91
2023-04-26T04:51:01.203Z,1010.89
2023-04-26T04:51:33.796Z,1010.91
2023-04-26T04:52:06.370Z,1010.92
2023-04-26T04:52:38.888Z,1010.91
2023-04-26T04:53:11.388Z,1010.91
2023-04-26T04:53:43.931Z,1010.93
2023-04-26T04:54:16.438Z,1010.92
2023-04-26T04:54:48.974Z,1010.92
2023-04-26T04:55:21.689Z,1010.93
2023-04-26T04:55:54.222Z,1010.93
2023-04-26T04:56:26.810Z,1010.92
2023-04-26T04:56:59.358Z,1010.92
2023-04-26T04:57:31.868Z,1010.92
2023-04-26T04:58:04.397Z,1010.95
2023-04-26T04:58:36.988Z,1010.95
2023-04-26T04:59:09.501Z,1010.94
2023-04-26T04:59:42.015Z,1010.97
2023-04-26T05:00:14.529Z,1010.97
2023-04-26T05:00:47.054Z,1010.99
2023-04-26T05:01:19.505Z,1010.99
2023-04-26T05:01:52.040Z,1010.98
2023-04-26T05:02:24.596Z,1010.98
2023-04-26T05:02:57.160Z,1011.00
2023-04-26T05:03:29.654Z,1011.00
2023-04-26T05:04:02.380Z,1011.00
2023-04-26T05:04:35.065Z,1011.00
2023-04-26T05:05:07.232Z,1010.99
2023-04-26T05:05:39.729Z,1011.00
2023-04-26T05:06:12.236Z,1011.00
2023-04-26T05:06:44.770Z,1011.01
2023-04-26T05:07:17.358Z,1011.00
2023-04-26T05:07:49.853Z,1011.02
2023-04-26T05:08:22.347Z,1010.98
2023-04-26T05:08:54.910Z,1010.98
2023-04-26T05:09:27.456Z,1010.97
2023-04-26T05:10:00.013Z,1010.98
2023-04-26T05:10:32.440Z,1010.97
2023-04-26T05:11:04.952Z,1010.99
2023-04-26T05:11:37.445Z,1010.98
2023-04-26T05:12:09.990Z,1010.99
2023-04-26T05:12:42.495Z,1011.00
2023-04-26T05:13:14.994Z,1011.02
2023-04-26T05:13:47.529Z,1011.01
2023-04-26T05:14:20.073Z,1011.02
2023-04-26T05:14:52.575Z,1011.04
2023-04-26T05:15:25.094Z,1011.04
2023-04-26T05:15:57.678Z,1011.06
2023-04-26T05:16:30.175Z,1011.06
2023-04-26T05:17:02.663Z,1011.05
2023-04-26T05:17:35.253Z,1011.04
2023-04-26T05:18:07.735Z,1011.05
2023-04-26T05:18:40.232Z,1011.04
2023-04-26T05:19:12.740Z,1011.05
2023-04-26T05:19:45.248Z,1011.03
2023-04-26T05:20:17.738Z,1011.05
2023-04-26T05:20:50.274Z,1011.06
2023-04-26T05:21:22.831Z,1011.09
2023-04-26T05:21:55.364Z,1011.07
2023-04-26T05:22:27.864Z,1011.08
2023-04-26T05:23:00.371Z,1011.11
2023-04-26T05:23:32.867Z,1011.12
2023-04-26T05:24:05.378Z,1011.10
2023-04-26T05:24:37.872Z,1011.12
2023-04-26T05:25:10.426Z,1011.13
2023-04-26T05:25:42.933Z,1011.13
2023-04-26T05:26:15.424Z,1011.14
2023-04-26T05:26:47.933Z,1011.14
2023-04-26T05:27:20.397Z,1011.16
2023-04-26T05:27:52.901Z,1011.17
2023-04-26T05:28:25.404Z,1011.19
2023-04-26T05:28:57.944Z,1011.18
2023-04-26T05:29:30.431Z,1011.17
2023-04-26T05:30:02.979Z,1011.17
2023-04-26T05:30:35.509Z,1011.18
2023-04-26T05:31:09.906Z,1011.17
2023-04-26T05:31:40.566Z,1011.18
2023-04-26T05:32:13.120Z,1011.20
2023-04-26T05:32:45.549Z,1011.19
2023-04-26T05:33:18.063Z,1011.19
2023-04-26T05:33:50.721Z,1011.18
2023-04-26T05:34:23.043Z,1011.19
2023-04-26T05:34:55.532Z,1011.18
2023-04-26T05:35:28.009Z,1011.18
2023-04-26T05:36:00.515Z,1011.19
2023-04-26T05:36:33.017Z,1011.18
2023-04-26T05:37:05.508Z,1011.20
2023-04-26T05:37:38.003Z,1011.20
2023-04-26T05:38:10.509Z,1011.19
2023-04-26T05:38:42.992Z,1011.21
2023-04-26T05:39:15.516Z,1011.24
2023-04-26T05:39:48.022Z,1011.25
2023-04-26T05:40:20.522Z,1011.24
2023-04-26T05:40:53.042Z,1011.27
2023-04-26T05:41:25.538Z,1011.27
2023-04-26T05:41:58.053Z,1011.28
2023-04-26T05:42:30.547Z,1011.27
2023-04-26T05:43:03.045Z,1011.28
2023-04-26T05:43:35.553Z,1011.28
2023-04-26T05:44:08.038Z,1011.28
2023-04-26T05:44:40.566Z,1011.31
2023-04-26T05:45:13.079Z,1011.31
2023-04-26T05:45:45.616Z,1011.32
2023-04-26T05:46:18.182Z,1011.32
2023-04-26T05:46:50.658Z,1011.32
2023-04-26T05:47:23.147Z,1011.34
2023-04-26T05:47:55.710Z,1011.32
2023-04-26T05:48:28.143Z,1011.33
2023-04-26T05:49:00.676Z,1011.32
2023-04-26T05:49:33.182Z,1011.33
2023-04-26T05:50:05.724Z,1011.34
2023-04-26T05:50:39.577Z,1011.34
2023-04-26T05:51:10.761Z,1011.36
2023-04-26T05:51:43.381Z,1011.37
2023-04-26T05:52:15.817Z,1011.36
2023-04-26T05:52:48.314Z,1011.35
2023-04-26T05:53:20.804Z,1011.37
2023-04-26T05:53:53.650Z,1011.37
2023-04-26T05:54:25.813Z,1011.37
2023-04-26T05:54:58.363Z,1011.36
2023-04-26T05:55:30.821Z,1011.35
2023-04-26T05:56:03.335Z,1011.38
2023-04-26T05:56:35.851Z,1011.40
2023-04-26T05:57:08.368Z,1011.42
2023-04-26T05:57:40.871Z,1011.42
2023-04-26T05:58:13.350Z,1011.44
2023-04-26T05:58:45.837Z,1011.45
2023-04-26T05:59:18.335Z,1011.45
2023-04-26T05:59:50.847Z,1011.46
2023-04-26T06:00:23.391Z,1011.44
2023-04-26T06:00:55.889Z,1011.47
2023-04-26T06:01:28.390Z,1011.47
2023-04-26T06:02:00.867Z,1011.47
2023-04-26T06:02:33.499Z,1011.47
2023-04-26T06:03:06.079Z,1011.49
2023-04-26T06:03:38.609Z,1011.50
2023-04-26T06:04:11.247Z,1011.50
2023-04-26T06:04:43.622Z,1011.52
2023-04-26T06:05:15.979Z,1011.52
2023-04-26T06:05:48.529Z,1011.53
2023-04-26T06:06:20.906Z,1011.57
2023-04-26T06:06:53.405Z,1011.55
2023-04-26T06:07:25.909Z,1011.55
2023-04-26T06:07:58.398Z,1011.57
2023-04-26T06:08:30.908Z,1011.56
2023-04-26T06:09:03.387Z,1011.57
2023-04-26T06:09:35.872Z,1011.59
2023-04-26T06:10:08.372Z,1011.59
2023-04-26T06:10:40.877Z,1011.61
2023-04-26T06:11:13.388Z,1011.65
2023-04-26T06:11:45.891Z,1011.67
2023-04-26T06:12:18.406Z,1011.68
2023-04-26T06:12:50.895Z,1011.67
2023-04-26T06:13:23.411Z,1011.71
2023-04-26T06:13:55.893Z,1011.72
2023-04-26T06:14:30.803Z,1011.71
2023-04-26T06:15:00.875Z,1011.71
2023-04-26T06:15:33.385Z,1011.73
2023-04-26T06:16:05.913Z,1011.76
2023-04-26T06:16:38.460Z,1011.75
2023-04-26T06:17:10.906Z,1011.77
2023-04-26T06:17:43.403Z,1011.79
2023-04-26T06:18:15.923Z,1011.77
2023-04-26T06:18:48.373Z,1011.78
2023-04-26T06:19:20.888Z,1011.82
2023-04-26T06:19:53.351Z,1011.84
2023-04-26T06:20:25.858Z,1011.88
2023-04-26T06:20:58.361Z,1011.86
2023-04-26T06:21:30.862Z,1011.90
2023-04-26T06:22:03.354Z,1011.90
2023-04-26T06:22:35.819Z,1011.90
2023-04-26T06:23:08.368Z,1011.90
2023-04-26T06:23:40.844Z,1011.90
2023-04-26T06:24:13.358Z,1011.89
2023-04-26T06:24:45.858Z,1011.88
2023-04-26T06:25:18.360Z,1011.89
2023-04-26T06:25:50.860Z,1011.89
2023-04-26T06:26:23.398Z,1011.92
2023-04-26T06:26:55.876Z,1011.90
2023-04-26T06:27:28.370Z,1011.93
2023-04-26T06:28:00.855Z,1011.94
2023-04-26T06:28:33.407Z,1011.94
2023-04-26T06:29:05.890Z,1011.95
2023-04-26T06:29:38.399Z,1011.96
2023-04-26T06:30:10.889Z,1011.96
2023-04-26T06:30:43.399Z,1012.00
2023-04-26T06:31:15.947Z,1012.01
2023-04-26T06:31:48.398Z,1012.00
2023-04-26T06:32:20.977Z,1012.01
2023-04-26T06:32:53.424Z,1012.00
2023-04-26T06:33:25.920Z,1011.98